Time;durP1;ratioP1;P1;durP2;ratioP2;P2;SDS_P1;SDS_P2;PMS_P1;PMS_P2;Temp;Humidity;BMP_temperature;BMP_pressure;BME280_temperature;BME280_humidity;BME280_pressure;Samples;Min_cycle;Max_cycle;Signal;HPM_P1;HPM_P2
2022/08/22 00:02:08;;;;;;;9.93;3.83;;;17.90;99.90;;;;;;5053494;28;20048;-93
2022/08/22 00:04:45;;;;;;;10.27;4.40;;;17.90;99.90;;;;;;5049689;28;20037;-93
2022/08/22 00:07:34;;;;;;;13.70;5.93;;;17.90;99.90;;;;;;5032568;28;20731;-92
2022/08/22 00:10:23;;;;;;;12.77;5.45;;;17.80;99.90;;;;;;5049849;28;20037;-93
2022/08/22 00:12:57;;;;;;;11.18;5.07;;;17.80;99.90;;;;;;5049339;28;20068;-93
2022/08/22 00:16:07;;;;;;;11.20;5.18;;;17.80;99.90;;;;;;5048750;28;20049;-93
2022/08/22 00:18:46;;;;;;;10.48;4.97;;;17.80;99.90;;;;;;4977983;28;20068;-93
2022/08/22 00:21:51;;;;;;;12.43;5.03;;;17.70;99.90;;;;;;4973364;28;20579;-93
2022/08/22 00:24:22;;;;;;;11.30;5.45;;;17.80;99.90;;;;;;4972573;28;20042;-93
2022/08/22 00:27:01;;;;;;;12.25;5.68;;;17.80;99.90;;;;;;5004790;28;20522;-93
2022/08/22 00:29:42;;;;;;;11.90;5.85;;;17.80;99.90;;;;;;4972341;28;20664;-93
2022/08/22 00:32:22;;;;;;;12.07;5.40;;;17.80;99.90;;;;;;5007114;28;20089;-93
2022/08/22 00:34:52;;;;;;;9.48;4.97;;;17.80;99.90;;;;;;4972596;28;20066;-93
2022/08/22 00:37:30;;;;;;;10.98;5.15;;;17.70;99.90;;;;;;4978029;28;20489;-93
2022/08/22 00:40:21;;;;;;;10.32;5.20;;;17.70;99.90;;;;;;4972956;28;20046;-93
2022/08/22 00:43:01;;;;;;;10.43;4.80;;;17.70;99.90;;;;;;5006492;28;20050;-93
2022/08/22 00:45:54;;;;;;;9.32;4.55;;;17.70;99.90;;;;;;4992153;28;20392;-93
2022/08/22 00:48:34;;;;;;;;;;;17.70;99.90;;;;;;4986901;28;20100;-92
2022/08/22 00:51:22;;;;;;;10.27;4.72;;;17.50;99.90;;;;;;4989572;28;19921;-93
2022/08/22 00:54:14;;;;;;;9.48;4.63;;;17.50;99.90;;;;;;4996244;28;20042;-93
2022/08/22 00:56:57;;;;;;;9.27;4.22;;;17.50;99.90;;;;;;5027801;28;20494;-92
2022/08/22 00:59:41;;;;;;;11.60;5.13;;;17.50;99.90;;;;;;5067344;28;20044;-93
2022/08/22 01:02:13;;;;;;;12.05;5.60;;;17.50;99.90;;;;;;5059329;28;20044;-93
2022/08/22 01:05:06;;;;;;;12.00;5.90;;;17.60;99.90;;;;;;5052515;28;20065;-93
2022/08/22 01:07:37;;;;;;;10.98;5.68;;;17.60;99.90;;;;;;5061651;28;20041;-92
2022/08/22 01:10:29;;;;;;;12.55;6.18;;;17.60;99.90;;;;;;5056628;28;20078;-92
2022/08/22 01:13:36;;;;;;;12.43;6.05;;;17.60;99.90;;;;;;5064861;28;20052;-93
2022/08/22 01:16:26;;;;;;;11.93;5.97;;;17.60;99.90;;;;;;5049162;28;20605;-93
2022/08/22 01:18:55;;;;;;;13.82;5.95;;;17.60;99.90;;;;;;5052345;28;20048;-92
2022/08/22 01:21:51;;;;;;;12.68;6.38;;;17.60;99.90;;;;;;5052338;28;20067;-92
2022/08/22 01:28:04;;;;;;;14.80;7.20;;;17.60;99.90;;;;;;5052621;28;20135;-92
2022/08/22 01:30:52;;;;;;;15.32;7.07;;;17.60;99.90;;;;;;5059353;28;20093;-93
2022/08/22 01:33:54;;;;;;;12.07;6.38;;;17.60;99.90;;;;;;5072345;28;20124;-92
2022/08/22 01:36:29;;;;;;;10.68;3.90;;;17.60;99.90;;;;;;5063533;28;20082;-93
2022/08/22 01:39:05;;;;;;;13.18;6.45;;;17.50;99.90;;;;;;5052833;28;20045;-93
2022/08/22 01:41:58;;;;;;;12.05;5.40;;;17.50;99.90;;;;;;5042247;28;20518;-92
2022/08/22 01:44:33;;;;;;;9.68;4.53;;;17.50;99.90;;;;;;5071467;28;20125;-93
2022/08/22 01:47:10;;;;;;;9.23;3.95;;;17.50;99.90;;;;;;5050443;28;20044;-93
2022/08/22 01:49:44;;;;;;;7.97;3.05;;;17.40;99.90;;;;;;5069360;28;20037;-92
2022/08/22 01:52:18;;;;;;;8.88;2.22;;;17.40;99.90;;;;;;5072349;28;20067;-93
2022/08/22 01:55:05;;;;;;;4.95;2.10;;;17.30;99.90;;;;;;5053214;28;20103;-94
2022/08/22 01:57:31;;;;;;;6.53;2.50;;;17.30;99.90;;;;;;5052159;28;20056;-92
2022/08/22 02:00:00;;;;;;;8.90;3.20;;;17.10;99.90;;;;;;5065871;28;20440;-93
2022/08/22 02:02:50;;;;;;;8.07;3.70;;;17.10;99.90;;;;;;5072145;28;20048;-93
2022/08/22 02:05:15;;;;;;;11.07;4.28;;;17.10;99.90;;;;;;5057165;28;20043;-93
2022/08/22 02:08:02;;;;;;;7.88;3.90;;;17.10;99.90;;;;;;5051803;28;20037;-93
2022/08/22 02:10:57;;;;;;;9.50;4.20;;;17.10;99.90;;;;;;5052400;28;20033;-93
2022/08/22 02:13:48;;;;;;;9.40;5.10;;;17.10;99.90;;;;;;5038699;28;20112;-93
2022/08/22 02:16:30;;;;;;;9.88;5.38;;;17.10;99.90;;;;;;5036073;28;20128;-93
2022/08/22 02:19:14;;;;;;;11.60;5.20;;;17.10;99.90;;;;;;5053422;28;20082;-92
2022/08/22 02:21:55;;;;;;;11.18;4.93;;;17.10;99.90;;;;;;5071271;28;20048;-93
2022/08/22 02:24:51;;;;;;;10.35;5.10;;;17.10;99.90;;;;;;5060089;28;20508;-93
2022/08/22 02:27:16;;;;;;;11.68;5.70;;;17.10;99.90;;;;;;5033393;28;20111;-93
2022/08/22 02:29:45;;;;;;;11.05;5.55;;;17.20;99.90;;;;;;5058968;28;20041;-93
2022/08/22 02:32:50;;;;;;;10.77;5.22;;;17.20;99.90;;;;;;5051372;28;20041;-93
2022/08/22 02:35:50;;;;;;;10.20;4.55;;;17.20;99.90;;;;;;5056529;28;20043;-94
2022/08/22 02:38:41;;;;;;;9.30;4.35;;;17.20;99.90;;;;;;5035184;28;20040;-93
2022/08/22 02:41:43;;;;;;;12.75;5.90;;;17.20;99.90;;;;;;5034112;28;20049;-93
2022/08/22 02:44:24;;;;;;;13.05;6.53;;;17.10;99.90;;;;;;5068201;28;20069;-93
2022/08/22 02:47:04;;;;;;;11.82;5.78;;;17.20;99.90;;;;;;5071621;28;20060;-93
2022/08/22 02:49:51;;;;;;;7.65;3.17;;;17.20;99.90;;;;;;5066723;28;20041;-93
2022/08/22 02:52:31;;;;;;;10.60;4.75;;;17.10;99.90;;;;;;5050929;28;20040;-94
2022/08/22 02:55:09;;;;;;;10.00;5.00;;;17.10;99.90;;;;;;5042282;28;20502;-93
2022/08/22 02:57:42;;;;;;;9.57;4.68;;;17.10;99.90;;;;;;5050956;28;20049;-93
2022/08/22 03:00:14;;;;;;;9.15;4.55;;;17.10;99.90;;;;;;5059032;28;20045;-93
2022/08/22 03:02:57;;;;;;;10.30;5.43;;;17.20;99.90;;;;;;5051222;28;20044;-93
2022/08/22 03:05:35;;;;;;;9.85;4.50;;;17.20;99.90;;;;;;5041938;28;20045;-93
2022/08/22 03:08:23;;;;;;;8.52;4.43;;;17.20;99.90;;;;;;5033760;28;20114;-94
2022/08/22 03:11:10;;;;;;;10.55;4.68;;;17.10;99.90;;;;;;5053593;28;20039;-94
2022/08/22 03:13:48;;;;;;;10.90;5.40;;;17.10;99.90;;;;;;5053973;28;20600;-93
2022/08/22 03:16:21;;;;;;;10.20;5.05;;;17.10;99.90;;;;;;5053748;28;20150;-93
2022/08/22 03:18:52;;;;;;;11.10;5.60;;;17.10;99.90;;;;;;5053476;28;20062;-94
2022/08/22 03:21:41;;;;;;;13.30;5.80;;;17.10;99.90;;;;;;5053798;28;20076;-94
2022/08/22 03:24:19;;;;;;;10.18;5.38;;;17.10;99.90;;;;;;5060881;28;20386;-93
2022/08/22 03:27:13;;;;;;;11.15;5.13;;;17.10;99.90;;;;;;5053479;28;20044;-93
2022/08/22 03:29:46;;;;;;;11.40;5.63;;;17.10;99.90;;;;;;5069387;28;20052;-93
2022/08/22 03:32:13;;;;;;;10.23;4.85;;;17.10;99.90;;;;;;5070237;28;20051;-93
2022/08/22 03:35:00;;;;;;;10.55;4.95;;;17.10;99.90;;;;;;5069699;28;20513;-93
2022/08/22 03:37:41;;;;;;;12.07;4.78;;;17.10;99.90;;;;;;5062927;28;20045;-93
2022/08/22 03:40:18;;;;;;;11.02;5.03;;;17.10;99.90;;;;;;5050435;28;20037;-94
2022/08/22 03:43:20;;;;;;;10.85;4.63;;;17.00;99.90;;;;;;5041138;28;20074;-93
2022/08/22 03:46:20;;;;;;;12.05;4.72;;;17.10;99.90;;;;;;5033614;28;20091;-94
2022/08/22 03:49:00;;;;;;;12.48;4.78;;;17.00;99.90;;;;;;5055321;28;20433;-93
2022/08/22 03:51:48;;;;;;;9.27;4.40;;;17.00;99.90;;;;;;5050316;28;20087;-93
2022/08/22 03:54:38;;;;;;;11.38;4.95;;;17.00;99.90;;;;;;5050602;28;20041;-92
2022/08/22 03:57:22;;;;;;;9.35;4.40;;;16.90;99.90;;;;;;5055252;28;20037;-93
2022/08/22 03:59:57;;;;;;;11.23;5.57;;;16.90;99.90;;;;;;5052803;28;20036;-93
2022/08/22 04:02:50;;;;;;;13.15;5.70;;;17.00;99.90;;;;;;5069328;28;20056;-93
2022/08/22 04:05:37;;;;;;;12.00;5.10;;;17.00;99.90;;;;;;5068916;28;20032;-94
2022/08/22 04:08:39;;;;;;;12.27;5.35;;;17.00;99.90;;;;;;5049528;28;20643;-93
2022/08/22 04:11:44;;;;;;;9.07;2.95;;;17.00;99.90;;;;;;5049135;28;20037;-93
2022/08/22 04:14:23;;;;;;;13.70;5.78;;;16.90;99.90;;;;;;5061800;28;20525;-93
2022/08/22 04:17:14;;;;;;;13.00;5.65;;;16.90;99.90;;;;;;5069418;28;20044;-93
2022/08/22 04:19:47;;;;;;;14.07;5.68;;;17.00;99.90;;;;;;5057013;28;20049;-93
2022/08/22 04:22:32;;;;;;;11.95;5.90;;;17.00;99.90;;;;;;5049412;28;20045;-93
2022/08/22 04:25:06;;;;;;;12.82;5.50;;;17.00;99.90;;;;;;5048925;28;20512;-93
2022/08/22 04:27:56;;;;;;;14.40;6.05;;;17.00;99.90;;;;;;5049469;28;20041;-93
2022/08/22 04:30:30;;;;;;;13.07;5.55;;;17.00;99.90;;;;;;5032937;28;20468;-93
2022/08/22 04:33:09;;;;;;;11.85;5.82;;;17.00;99.90;;;;;;5048586;28;20051;-93
2022/08/22 04:35:41;;;;;;;9.88;4.63;;;17.10;99.90;;;;;;5068622;28;20032;-93
2022/08/22 04:38:25;;;;;;;10.55;3.10;;;17.00;99.90;;;;;;5069269;28;20032;-93
2022/08/22 04:41:12;;;;;;;9.60;4.53;;;16.90;99.90;;;;;;5069517;28;20070;-94
2022/08/22 04:43:55;;;;;;;9.55;4.40;;;16.90;99.90;;;;;;5073203;28;20052;-94
2022/08/22 04:46:54;;;;;;;10.48;4.95;;;16.80;99.90;;;;;;5055879;28;20670;-93
2022/08/22 04:49:43;;;;;;;14.05;5.03;;;16.80;99.90;;;;;;5052709;28;20045;-94
2022/08/22 04:52:34;;;;;;;11.57;5.25;;;16.80;99.90;;;;;;5053028;28;20072;-93
2022/08/22 04:55:27;;;;;;;11.73;5.32;;;16.90;99.90;;;;;;5036276;28;20036;-94
2022/08/22 04:58:29;;;;;;;9.30;2.97;;;16.80;99.90;;;;;;5036543;28;20064;-93
2022/08/22 05:01:18;;;;;;;13.50;5.38;;;16.70;99.90;;;;;;5053117;28;20045;-94
2022/08/22 05:04:06;;;;;;;11.35;5.07;;;16.80;99.90;;;;;;5060853;28;20040;-94
2022/08/22 05:06:35;;;;;;;12.48;4.75;;;16.80;99.90;;;;;;5053494;28;20136;-94
2022/08/22 05:09:11;;;;;;;11.15;5.20;;;16.80;99.90;;;;;;5035982;28;20049;-93
2022/08/22 05:11:40;;;;;;;13.27;5.28;;;16.80;99.90;;;;;;5052349;28;20041;-93
2022/08/22 05:14:20;;;;;;;8.82;3.55;;;16.80;99.90;;;;;;5059860;28;20036;-94
2022/08/22 05:16:51;;;;;;;10.15;4.85;;;16.70;99.90;;;;;;5054244;28;20068;-93
2022/08/22 05:19:23;;;;;;;10.57;5.03;;;16.70;99.90;;;;;;5059853;28;20044;-93
2022/08/22 05:21:50;;;;;;;12.67;5.63;;;16.80;99.90;;;;;;5052778;28;20506;-93
2022/08/22 05:24:39;;;;;;;11.05;5.30;;;16.90;99.90;;;;;;5052864;28;20041;-93
2022/08/22 05:27:17;;;;;;;14.80;5.88;;;16.90;99.90;;;;;;5060968;28;20040;-93
2022/08/22 05:29:47;;;;;;;11.60;5.63;;;16.90;99.90;;;;;;5052383;28;20124;-93
2022/08/22 05:32:45;;;;;;;10.32;5.30;;;16.90;99.90;;;;;;5059524;28;20032;-93
2022/08/22 05:35:11;;;;;;;11.48;5.38;;;17.00;99.90;;;;;;5052291;28;20037;-93
2022/08/22 05:37:47;;;;;;;11.30;5.40;;;17.00;99.90;;;;;;5052379;28;20155;-93
2022/08/22 05:40:23;;;;;;;12.25;5.97;;;17.00;99.90;;;;;;5058515;28;20041;-93
2022/08/22 05:42:50;;;;;;;12.75;6.45;;;17.10;99.90;;;;;;5052418;28;20041;-93
2022/08/22 05:45:17;;;;;;;11.15;6.22;;;17.10;99.90;;;;;;5064398;28;20038;-94
2022/08/22 05:47:58;;;;;;;15.60;7.28;;;17.10;99.90;;;;;;5055587;28;20524;-93
2022/08/22 05:50:44;;;;;;;10.65;5.82;;;17.20;99.90;;;;;;5054732;28;20068;-93
2022/08/22 05:53:10;;;;;;;15.57;6.65;;;17.20;99.90;;;;;;5071513;28;20048;-93
2022/08/22 05:55:47;;;;;;;12.80;5.03;;;17.20;99.90;;;;;;5068011;28;20033;-93
2022/08/22 05:58:19;;;;;;;17.38;7.40;;;17.20;99.90;;;;;;5051710;28;20040;-93
2022/08/22 06:00:52;;;;;;;15.50;7.15;;;17.30;99.90;;;;;;5051938;28;20090;-92
2022/08/22 06:03:24;;;;;;;13.70;6.95;;;17.30;99.90;;;;;;5061247;28;20044;-94
2022/08/22 06:05:55;;;;;;;14.18;4.90;;;17.40;99.90;;;;;;5055476;28;20105;-93
2022/08/22 06:08:34;;;;;;;13.52;7.13;;;17.40;99.90;;;;;;5071086;28;20513;-93
2022/08/22 06:11:11;;;;;;;13.60;6.45;;;17.40;99.90;;;;;;5053878;28;20032;-93
2022/08/22 06:13:54;;;;;;;15.10;6.72;;;17.50;99.90;;;;;;5071718;28;20062;-93
2022/08/22 06:16:39;;;;;;;12.88;7.00;;;17.50;99.90;;;;;;5064471;28;20033;-93
2022/08/22 06:19:06;;;;;;;12.93;6.57;;;17.60;99.90;;;;;;5051799;28;20040;-92
2022/08/22 06:21:37;;;;;;;15.27;6.75;;;17.60;99.90;;;;;;5057248;28;20044;-93
2022/08/22 06:24:12;;;;;;;14.00;6.53;;;17.60;99.90;;;;;;5051885;28;20076;-93
2022/08/22 06:26:44;;;;;;;15.80;7.10;;;17.70;99.90;;;;;;5035134;28;20532;-93
2022/08/22 06:29:14;;;;;;;;;;;17.70;99.90;;;;;;5050524;28;20119;-93
2022/08/22 06:31:47;;;;;;;15.48;6.50;;;17.70;99.90;;;;;;5071025;28;19922;-93
2022/08/22 06:34:23;;;;;;;13.93;5.97;;;17.70;99.90;;;;;;5066789;28;20043;-93
2022/08/22 06:36:50;;;;;;;13.77;6.60;;;17.80;99.90;;;;;;5034972;28;20037;-93
2022/08/22 06:39:23;;;;;;;14.45;6.43;;;17.80;99.90;;;;;;5058386;28;20052;-93
2022/08/22 06:42:12;;;;;;;14.20;6.35;;;17.80;99.90;;;;;;5070899;28;20108;-93
2022/08/22 06:44:47;;;;;;;13.75;6.40;;;17.90;99.90;;;;;;5065199;28;20532;-92
2022/08/22 06:47:22;;;;;;;13.32;5.72;;;17.90;99.90;;;;;;5037458;28;20045;-92
2022/08/22 06:49:54;;;;;;;12.77;6.30;;;18.00;99.90;;;;;;5034480;28;20044;-93
2022/08/22 06:52:22;;;;;;;17.98;6.10;;;18.00;99.90;;;;;;5060393;28;20041;-94
2022/08/22 06:54:55;;;;;;;12.95;5.90;;;18.00;99.90;;;;;;5050865;28;20071;-93
2022/08/22 06:57:53;;;;;;;17.65;6.72;;;18.10;99.90;;;;;;5057922;28;20083;-92
2022/08/22 07:00:20;;;;;;;14.63;6.75;;;18.10;99.90;;;;;;5050540;28;20099;-93
2022/08/22 07:02:52;;;;;;;15.63;5.88;;;18.20;99.90;;;;;;5033174;28;20065;-93
2022/08/22 07:05:23;;;;;;;13.02;5.63;;;18.20;99.90;;;;;;5065716;28;20039;-93
2022/08/22 07:07:49;;;;;;;14.10;6.30;;;18.20;99.90;;;;;;5070986;28;20059;-93
2022/08/22 07:10:16;;;;;;;15.85;5.93;;;18.30;99.90;;;;;;5057991;28;20040;-93
2022/08/22 07:12:52;;;;;;;13.85;5.85;;;18.30;99.90;;;;;;5050480;28;20037;-93
2022/08/22 07:15:36;;;;;;;14.30;5.57;;;18.30;99.90;;;;;;5034382;28;20037;-93
2022/08/22 07:18:28;;;;;;;15.35;6.20;;;18.30;99.90;;;;;;5038720;28;20037;-93
2022/08/22 07:21:03;;;;;;;15.73;5.72;;;18.40;99.90;;;;;;5046896;28;20402;-93
2022/08/22 07:23:43;;;;;;;14.27;5.45;;;18.40;99.90;;;;;;5057762;28;20044;-93
2022/08/22 07:26:46;;;;;;;13.18;5.20;;;18.40;99.90;;;;;;5050560;28;20494;-93
2022/08/22 07:29:32;;;;;;;9.68;3.65;;;18.50;99.90;;;;;;5054591;28;20040;-93
2022/08/22 07:32:08;;;;;;;14.38;5.68;;;18.40;99.90;;;;;;5069547;28;20086;-93
2022/08/22 07:34:58;;;;;;;15.63;6.25;;;18.50;99.90;;;;;;5057151;28;20071;-93
2022/08/22 07:37:43;;;;;;;14.38;5.20;;;18.50;99.90;;;;;;5050816;28;20037;-93
2022/08/22 07:40:22;;;;;;;13.93;5.50;;;18.60;99.90;;;;;;5041611;28;20487;-93
2022/08/22 07:43:00;;;;;;;14.43;5.18;;;18.60;99.90;;;;;;5049994;28;20106;-93
2022/08/22 07:45:35;;;;;;;13.80;5.30;;;18.70;99.90;;;;;;5055418;28;20051;-93
2022/08/22 07:48:20;;;;;;;14.30;5.13;;;18.80;99.90;;;;;;5053067;28;20059;-93
2022/08/22 07:51:14;;;;;;;13.18;4.72;;;18.80;99.90;;;;;;5049960;28;20809;-93
2022/08/22 07:53:55;;;;;;;17.00;5.47;;;18.90;99.90;;;;;;5067393;28;20775;-93
2022/08/22 07:56:29;;;;;;;13.77;5.10;;;18.90;99.90;;;;;;5059449;28;20529;-93
2022/08/22 07:59:02;;;;;;;14.45;5.05;;;18.90;99.90;;;;;;5060329;28;20064;-93
2022/08/22 08:01:28;;;;;;;18.58;5.45;;;19.00;99.90;;;;;;5052845;28;20406;-84
2022/08/22 08:04:09;;;;;;;12.30;4.47;;;19.00;99.90;;;;;;5057995;28;20060;-85
2022/08/22 08:06:35;;;;;;;13.38;4.57;;;19.10;99.90;;;;;;5069557;28;20045;-84
2022/08/22 08:09:01;;;;;;;14.95;5.30;;;19.10;99.90;;;;;;5059698;28;20040;-84
2022/08/22 08:11:32;;;;;;;16.75;5.03;;;19.20;99.90;;;;;;5069282;28;20036;-85
2022/08/22 08:14:01;;;;;;;11.38;4.55;;;19.20;99.90;;;;;;5070153;28;20041;-85
2022/08/22 08:16:38;;;;;;;14.07;4.38;;;19.20;99.90;;;;;;5059371;28;20037;-84
2022/08/22 08:19:05;;;;;;;14.98;4.93;;;19.30;99.90;;;;;;5052788;28;20051;-85
2022/08/22 08:21:52;;;;;;;14.77;5.07;;;19.30;99.90;;;;;;5059822;28;20083;-85
2022/08/22 08:24:39;;;;;;;11.18;4.68;;;19.40;99.90;;;;;;5049212;28;20065;-84
2022/08/22 08:30:03;;;;;;;12.25;4.10;;;19.50;99.90;;;;;;5064024;28;20040;-84
2022/08/22 08:32:36;;;;;;;12.88;4.35;;;19.60;99.90;;;;;;5068980;28;20041;-84
2022/08/22 08:35:19;;;;;;;14.32;4.13;;;19.60;99.90;;;;;;5054662;28;20037;-84
2022/08/22 08:37:48;;;;;;;13.98;4.53;;;19.70;99.90;;;;;;5033592;28;20049;-85
2022/08/22 08:40:32;;;;;;;13.98;4.50;;;19.70;99.90;;;;;;5038933;28;20041;-85
2022/08/22 08:46:06;;;;;;;14.10;4.82;;;19.90;99.90;;;;;;5060988;28;20052;-85
2022/08/22 08:48:53;;;;;;;14.27;4.53;;;19.90;99.90;;;;;;5069160;28;20051;-84
2022/08/22 08:51:52;;;;;;;11.60;3.75;;;20.00;99.90;;;;;;5042731;28;20036;-85
2022/08/22 08:54:42;;;;;;;13.68;3.90;;;20.10;99.90;;;;;;5052916;28;20037;-84
2022/08/22 08:57:40;;;;;;;14.63;4.60;;;20.10;99.90;;;;;;5057494;28;20033;-84
2022/08/22 09:00:15;;;;;;;12.27;3.65;;;20.20;99.90;;;;;;5032498;28;20060;-84
2022/08/22 09:02:52;;;;;;;14.00;5.07;;;20.20;99.90;;;;;;5055505;28;20123;-84
2022/08/22 09:05:42;;;;;;;12.38;3.70;;;20.30;99.90;;;;;;5068167;28;20033;-84
2022/08/22 09:09:02;;;;;;;14.73;4.72;;;20.40;99.90;;;;;;5050584;28;20049;-84
2022/08/22 09:11:53;;;;;;;12.25;4.50;;;20.40;99.90;;;;;;4971740;28;20105;-84
2022/08/22 09:14:46;;;;;;;13.55;4.90;;;20.40;99.90;;;;;;5045950;28;20283;-84
2022/08/22 09:17:43;;;;;;;13.27;4.55;;;20.50;99.90;;;;;;5049035;28;20037;-84
2022/08/22 09:20:40;;;;;;;13.80;4.15;;;20.60;99.90;;;;;;5052735;28;20036;-84
2022/08/22 09:23:17;;;;;;;14.27;4.65;;;20.70;99.90;;;;;;5069153;28;20045;-84
2022/08/22 09:25:50;;;;;;;13.80;4.20;;;20.70;99.90;;;;;;5066653;28;20045;-84
2022/08/22 09:28:18;;;;;;;;;;;20.80;99.90;;;;;;5048083;28;20106;-84
2022/08/22 09:30:55;;;;;;;11.60;4.05;;;20.80;99.90;;;;;;5071835;28;19927;-84
2022/08/22 09:33:28;;;;;;;14.27;3.63;;;20.90;99.90;;;;;;5046594;28;20037;-84
2022/08/22 09:36:41;;;;;;;10.15;3.17;;;20.90;99.90;;;;;;5072457;28;20041;-84
2022/08/22 09:39:24;;;;;;;12.68;3.28;;;21.00;99.90;;;;;;5034416;28;20102;-85
2022/08/22 09:42:14;;;;;;;11.82;3.40;;;21.10;99.90;;;;;;5051639;28;20045;-84
2022/08/22 09:44:58;;;;;;;9.18;2.90;;;21.10;99.90;;;;;;5042756;28;20043;-85
2022/08/22 09:47:29;;;;;;;12.70;3.47;;;21.20;99.90;;;;;;5053012;28;20091;-85
2022/08/22 09:50:19;;;;;;;11.02;3.38;;;21.30;99.90;;;;;;5052563;28;20040;-85
2022/08/22 09:53:07;;;;;;;14.10;3.65;;;21.40;99.90;;;;;;5065860;28;20037;-85
2022/08/22 09:55:58;;;;;;;12.23;2.88;;;21.40;99.90;;;;;;5055540;28;20044;-85
2022/08/22 09:58:54;;;;;;;9.82;3.10;;;21.50;99.90;;;;;;5050940;28;20102;-85
2022/08/22 10:01:34;;;;;;;11.07;3.40;;;21.60;99.90;;;;;;5035057;28;20041;-84
2022/08/22 10:04:29;;;;;;;13.93;5.93;;;21.70;99.90;;;;;;5059339;28;20032;-85
2022/08/22 10:07:27;;;;;;;10.20;3.20;;;21.70;99.90;;;;;;5051299;28;20087;-85
2022/08/22 10:10:02;;;;;;;12.18;2.88;;;21.70;99.90;;;;;;5059816;28;20136;-85
2022/08/22 10:12:53;;;;;;;12.77;5.28;;;21.70;99.90;;;;;;5050599;28;20125;-85
2022/08/22 10:15:45;;;;;;;13.30;3.00;;;21.80;99.90;;;;;;5043056;28;20037;-85
2022/08/22 10:18:39;;;;;;;9.45;2.83;;;21.80;99.90;;;;;;5071499;28;20044;-85
2022/08/22 10:21:18;;;;;;;12.25;3.17;;;21.90;99.90;;;;;;5054110;28;20498;-85
2022/08/22 10:23:52;;;;;;;11.00;2.88;;;22.00;99.90;;;;;;5041925;28;20119;-85
2022/08/22 10:26:30;;;;;;;8.95;2.53;;;22.10;99.90;;;;;;5050750;28;20037;-85
2022/08/22 10:29:35;;;;;;;8.25;2.20;;;22.10;99.90;;;;;;5033594;28;20056;-84
2022/08/22 10:32:30;;;;;;;9.15;2.35;;;22.30;99.90;;;;;;5050983;28;20080;-85
2022/08/22 10:35:04;;;;;;;8.85;2.60;;;22.30;99.90;;;;;;5036844;28;20045;-85
2022/08/22 10:37:53;;;;;;;11.05;2.95;;;22.40;99.90;;;;;;5051132;28;20490;-85
2022/08/22 10:40:35;;;;;;;10.93;2.63;;;22.60;99.90;;;;;;5054344;28;20120;-85
2022/08/22 10:43:01;;;;;;;10.60;2.60;;;22.70;99.90;;;;;;5053385;28;20044;-85
2022/08/22 10:45:37;;;;;;;8.43;2.78;;;22.80;99.90;;;;;;5070173;28;20054;-85
2022/08/22 10:48:26;;;;;;;10.65;2.80;;;22.70;99.90;;;;;;5070545;28;20052;-85
2022/08/22 10:51:13;;;;;;;9.75;3.05;;;22.80;99.90;;;;;;5043650;28;20070;-85
2022/08/22 10:53:50;;;;;;;12.02;3.38;;;22.80;99.90;;;;;;5053613;28;20033;-85
2022/08/22 10:56:42;;;;;;;11.63;4.07;;;22.90;99.90;;;;;;5070221;28;20045;-85
2022/08/22 10:59:17;;;;;;;12.55;3.30;;;23.00;99.90;;;;;;5066034;28;20042;-85
2022/08/22 11:02:29;;;;;;;11.10;2.80;;;23.10;99.90;;;;;;5044202;28;20041;-85
2022/08/22 11:05:33;;;;;;;9.95;2.85;;;23.20;99.90;;;;;;5062273;28;20055;-85
2022/08/22 11:08:03;;;;;;;9.23;2.85;;;23.30;99.90;;;;;;5050442;28;20037;-85
2022/08/22 11:10:49;;;;;;;11.80;3.17;;;23.40;99.90;;;;;;5051942;28;20098;-85
2022/08/22 11:13:25;;;;;;;10.27;2.75;;;23.40;99.90;;;;;;5043324;28;20047;-85
2022/08/22 11:16:07;;;;;;;12.80;3.30;;;23.40;99.90;;;;;;5051550;28;20049;-85
2022/08/22 11:18:50;;;;;;;;;;;23.40;99.90;;;;;;5050829;28;20040;-85
2022/08/22 11:21:27;;;;;;;9.55;2.75;;;23.40;99.90;;;;;;5057925;28;19920;-85
2022/08/22 11:24:05;;;;;;;10.52;2.95;;;23.50;99.90;;;;;;5033337;28;20094;-85
2022/08/22 11:26:46;;;;;;;12.25;3.67;;;23.60;99.90;;;;;;5041433;28;20139;-85
2022/08/22 11:29:20;;;;;;;13.65;3.65;;;23.70;99.90;;;;;;5050164;28;20045;-85
2022/08/22 11:31:56;;;;;;;12.73;4.18;;;23.80;99.90;;;;;;5051535;28;20033;-85
2022/08/22 11:34:43;;;;;;;11.98;3.25;;;24.00;99.90;;;;;;5052766;28;20124;-85
2022/08/22 11:37:22;;;;;;;11.63;3.13;;;24.10;99.90;;;;;;5050567;28;20033;-85
2022/08/22 11:40:26;;;;;;;10.07;2.95;;;24.20;99.90;;;;;;5050059;28;20045;-85
2022/08/22 11:43:07;;;;;;;9.60;2.70;;;24.40;99.90;;;;;;5032746;28;20127;-85
2022/08/22 11:45:43;;;;;;;12.25;3.10;;;24.50;99.90;;;;;;5032833;28;20518;-85
2022/08/22 11:48:25;;;;;;;9.48;3.00;;;24.70;99.90;;;;;;5033383;28;20550;-85
2022/08/22 11:51:12;;;;;;;14.35;3.17;;;24.80;99.90;;;;;;5055540;28;20571;-85
2022/08/22 11:53:45;;;;;;;10.95;3.17;;;25.00;99.90;;;;;;5049916;28;20033;-85
2022/08/22 11:56:10;;;;;;;;;;;25.10;99.80;;;;;;5052515;28;20032;-85
2022/08/22 11:58:56;;;;;;;14.23;5.53;;;25.20;99.90;;;;;;5049419;28;20347;-85
2022/08/22 12:01:36;;;;;;;10.40;2.90;;;25.40;99.70;;;;;;5034179;28;20119;-85
2022/08/22 12:04:09;;;;;;;11.27;2.97;;;25.50;99.20;;;;;;5053386;28;20477;-86
2022/08/22 12:06:54;;;;;;;11.23;2.70;;;25.70;98.30;;;;;;5051064;28;20053;-85
2022/08/22 12:09:22;;;;;;;11.18;3.00;;;25.80;97.60;;;;;;5053417;28;20127;-85
2022/08/22 12:12:19;;;;;;;11.07;3.28;;;25.80;95.90;;;;;;5052337;28;20032;-85
2022/08/22 12:15:06;;;;;;;11.13;2.88;;;25.90;95.80;;;;;;5070464;28;20040;-85
2022/08/22 12:17:50;;;;;;;11.95;2.88;;;26.00;95.00;;;;;;5069351;28;20037;-85
2022/08/22 12:20:46;;;;;;;8.95;2.83;;;26.00;94.50;;;;;;5069309;28;20047;-85
2022/08/22 12:23:27;;;;;;;11.15;2.95;;;26.10;93.70;;;;;;5050329;28;20094;-86
2022/08/22 12:26:24;;;;;;;10.90;3.13;;;26.10;94.00;;;;;;5062112;28;20067;-85
2022/08/22 12:29:00;;;;;;;9.93;2.70;;;26.30;94.40;;;;;;5052492;28;20398;-85
2022/08/22 12:31:58;;;;;;;13.15;3.10;;;26.30;94.10;;;;;;5049529;28;20090;-86
2022/08/22 12:34:42;;;;;;;10.65;2.72;;;26.30;92.10;;;;;;5050131;28;20123;-86
2022/08/22 12:37:17;;;;;;;10.48;2.60;;;26.40;91.80;;;;;;5038400;28;20397;-86
2022/08/22 12:40:16;;;;;;;10.20;2.63;;;26.50;92.50;;;;;;5049866;28;20487;-86
2022/08/22 12:43:08;;;;;;;10.82;3.05;;;26.50;91.70;;;;;;5050954;28;20068;-86
2022/08/22 12:45:57;;;;;;;9.18;2.70;;;26.60;91.30;;;;;;5050926;28;20037;-86
2022/08/22 12:48:42;;;;;;;8.82;2.80;;;26.60;91.60;;;;;;5035514;28;20039;-85
2022/08/22 12:51:31;;;;;;;11.68;2.90;;;26.80;91.50;;;;;;5068535;28;20074;-86
2022/08/22 12:54:25;;;;;;;10.98;3.35;;;26.90;90.50;;;;;;5052229;28;20045;-85
2022/08/22 12:57:12;;;;;;;10.65;2.95;;;27.10;90.50;;;;;;5052077;28;20054;-85
2022/08/22 12:59:46;;;;;;;10.75;3.08;;;27.30;88.10;;;;;;5069216;28;20044;-85
2022/08/22 13:02:24;;;;;;;13.35;3.45;;;27.50;82.80;;;;;;5068748;28;20068;-85
2022/08/22 13:05:01;;;;;;;11.05;3.03;;;27.50;79.50;;;;;;5054100;28;20055;-85
2022/08/22 13:07:33;;;;;;;10.30;2.80;;;27.50;78.70;;;;;;5069836;28;20127;-85
2022/08/22 13:10:14;;;;;;;9.40;2.67;;;27.50;77.90;;;;;;5071244;28;20039;-85
2022/08/22 13:12:46;;;;;;;8.30;2.47;;;27.70;79.50;;;;;;5069687;28;20397;-85
2022/08/22 13:15:30;;;;;;;8.82;2.70;;;27.70;77.30;;;;;;5071067;28;20040;-85
2022/08/22 13:17:59;;;;;;;7.97;2.70;;;27.80;74.90;;;;;;5071267;28;20129;-85
2022/08/22 13:20:40;;;;;;;9.60;2.70;;;27.80;73.50;;;;;;5056107;28;20131;-85
2022/08/22 13:23:28;;;;;;;8.68;2.95;;;27.80;71.00;;;;;;5054836;28;20516;-85
2022/08/22 13:26:20;;;;;;;10.68;3.28;;;27.80;70.00;;;;;;5072140;28;20044;-86
2022/08/22 13:29:06;;;;;;;10.23;3.08;;;27.90;72.70;;;;;;5072164;28;20056;-86
2022/08/22 13:31:39;;;;;;;11.05;2.88;;;28.00;74.20;;;;;;5072050;28;20033;-86
2022/08/22 13:34:26;;;;;;;8.30;3.13;;;28.10;75.00;;;;;;5071427;28;20266;-86
2022/08/22 13:36:57;;;;;;;11.15;3.40;;;28.20;74.80;;;;;;5039544;28;20041;-86
2022/08/22 13:39:37;;;;;;;10.80;3.47;;;28.20;73.80;;;;;;5035884;28;20077;-86
2022/08/22 13:42:05;;;;;;;11.57;3.00;;;28.30;74.30;;;;;;5053895;28;20082;-86
2022/08/22 13:44:37;;;;;;;11.73;3.22;;;28.30;74.30;;;;;;5071299;28;20497;-85
2022/08/22 13:47:23;;;;;;;11.32;2.60;;;28.20;73.00;;;;;;5072522;28;20444;-86
2022/08/22 13:50:13;;;;;;;10.77;3.15;;;28.10;72.70;;;;;;5072199;28;20090;-86
2022/08/22 13:53:05;;;;;;;9.40;2.53;;;27.90;73.00;;;;;;5070828;28;20045;-86
2022/08/22 13:55:48;;;;;;;11.32;3.00;;;27.70;74.00;;;;;;5055121;28;20154;-85
2022/08/22 13:58:27;;;;;;;9.27;2.78;;;27.60;71.20;;;;;;5054977;28;20044;-85
2022/08/22 14:01:30;;;;;;;6.93;2.28;;;27.60;72.80;;;;;;5071626;28;20052;-86
2022/08/22 14:04:23;;;;;;;8.55;2.58;;;27.60;73.30;;;;;;5027137;28;20082;-86
2022/08/22 14:06:55;;;;;;;12.30;3.13;;;27.60;71.20;;;;;;5043801;28;20111;-86